Time;durP1;ratioP1;P1;durP2;ratioP2;P2;SDS_P1;SDS_P2;PMS_P1;PMS_P2;Temp;Humidity;BMP_temperature;BMP_pressure;BME280_temperature;BME280_humidity;BME280_pressure;Samples;Min_cycle;Max_cycle;Signal;HPM_P1;HPM_P2
2023/03/10 00:01:13;;;;;;;103.25;60.35;;;9.70;1.00;;;;;;5088134;28;20506;-76
2023/03/10 00:03:41;;;;;;;100.47;59.08;;;9.70;1.00;;;;;;5088643;28;20047;-76
2023/03/10 00:06:09;;;;;;;103.57;58.45;;;9.60;99.90;;;;;;5068043;28;20040;-75
2023/03/10 00:08:37;;;;;;;87.68;49.95;;;9.60;99.90;;;;;;5089400;28;20119;-76
2023/03/10 00:11:05;;;;;;;85.80;50.30;;;9.60;99.90;;;;;;5089123;28;20127;-75
2023/03/10 00:13:33;;;;;;;89.25;53.85;;;9.50;1.00;;;;;;5074170;28;20040;-74
2023/03/10 00:16:02;;;;;;;85.40;50.92;;;9.60;22.80;;;;;;5069617;28;20048;-76
2023/03/10 00:18:30;;;;;;;56.55;33.20;;;9.60;1.00;;;;;;5094093;28;20078;-75
2023/03/10 00:20:57;;;;;;;59.28;35.28;;;9.60;54.60;;;;;;5068931;28;20036;-75
2023/03/10 00:23:25;;;;;;;70.63;41.13;;;9.60;1.00;;;;;;5066491;28;20048;-76
2023/03/10 00:25:57;;;;;;;65.38;36.42;;;9.60;99.90;;;;;;5090752;28;20107;-76
2023/03/10 00:28:25;;;;;;;61.30;37.42;;;9.60;1.00;;;;;;5082411;28;20441;-75
2023/03/10 00:31:02;;;;;;;53.42;32.70;;;9.60;99.90;;;;;;5079792;28;20135;-76
2023/03/10 00:33:31;;;;;;;71.07;41.72;;;9.60;99.90;;;;;;5086121;28;20044;-77
2023/03/10 00:36:07;;;;;;;77.00;47.42;;;9.60;88.00;;;;;;5094341;28;20068;-76
2023/03/10 00:38:36;;;;;;;106.05;59.85;;;9.70;1.00;;;;;;5073418;28;20067;-75
2023/03/10 00:41:07;;;;;;;100.50;57.25;;;9.60;1.00;;;;;;5076634;28;20043;-76
2023/03/10 00:43:34;;;;;;;116.10;64.15;;;9.60;1.00;;;;;;5099158;28;20036;-76
2023/03/10 00:46:04;;;;;;;177.45;96.57;;;9.60;99.90;;;;;;5101535;28;20387;-76
2023/03/10 00:48:32;;;;;;;152.23;85.47;;;9.60;1.00;;;;;;5077724;28;20040;-75
2023/03/10 00:51:00;;;;;;;123.82;71.72;;;9.60;99.90;;;;;;5091848;28;20140;-74
2023/03/10 00:53:28;;;;;;;125.43;70.20;;;9.60;99.90;;;;;;5075075;28;20044;-76
2023/03/10 00:56:01;;;;;;;176.00;97.13;;;9.60;99.90;;;;;;5069840;28;20051;-74
2023/03/10 00:58:29;;;;;;;156.35;87.43;;;9.50;99.90;;;;;;5092309;28;20047;-75
2023/03/10 01:00:57;;;;;;;151.40;86.50;;;9.50;1.00;;;;;;5071768;28;20724;-73
2023/03/10 01:03:27;;;;;;;166.30;95.00;;;9.50;1.00;;;;;;5072983;28;20519;-75
2023/03/10 01:05:55;;;;;;;140.10;81.25;;;9.50;1.00;;;;;;5072109;28;20040;-75
2023/03/10 01:08:24;;;;;;;120.95;71.32;;;9.50;1.00;;;;;;5074129;28;20047;-76
2023/03/10 01:10:52;;;;;;;126.05;70.80;;;9.50;1.00;;;;;;5069935;28;20046;-76
2023/03/10 01:13:19;;;;;;;125.47;74.60;;;9.40;1.00;;;;;;5070462;28;20230;-75
2023/03/10 01:15:47;;;;;;;114.50;64.03;;;9.30;99.90;;;;;;5074412;28;20052;-74
2023/03/10 01:18:16;;;;;;;100.65;59.78;;;9.30;1.00;;;;;;5070065;28;20055;-75
2023/03/10 01:20:45;;;;;;;85.82;52.05;;;9.20;1.00;;;;;;5070256;28;20105;-76
2023/03/10 01:23:18;;;;;;;73.68;42.92;;;9.20;99.90;;;;;;5069859;28;20052;-75
2023/03/10 01:25:46;;;;;;;54.80;33.72;;;9.20;1.00;;;;;;5071887;28;20048;-75
2023/03/10 01:28:14;;;;;;;74.32;43.03;;;9.30;1.00;;;;;;5074679;28;20044;-76
2023/03/10 01:30:42;;;;;;;77.88;47.35;;;9.30;99.90;;;;;;5091686;28;20042;-76
2023/03/10 01:33:14;;;;;;;81.97;48.47;;;9.30;99.90;;;;;;5070577;28;20388;-77
2023/03/10 01:35:42;;;;;;;83.03;49.30;;;9.20;99.90;;;;;;5070451;28;20155;-75
2023/03/10 01:38:13;;;;;;;79.65;48.65;;;9.20;1.00;;;;;;5068989;28;20040;-73
2023/03/10 01:40:47;;;;;;;75.38;44.47;;;9.20;1.00;;;;;;5067910;28;20222;-75
2023/03/10 01:43:27;;;;;;;74.70;43.83;;;9.10;1.00;;;;;;5074597;28;20044;-76
2023/03/10 01:46:28;;;;;;;80.65;48.38;;;9.10;99.90;;;;;;5073022;28;20050;-74
2023/03/10 01:49:00;;;;;;;79.32;47.05;;;9.10;1.00;;;;;;5073393;28;20131;-77
2023/03/10 01:51:29;;;;;;;76.85;45.03;;;9.00;99.90;;;;;;5089519;28;20044;-74
2023/03/10 01:53:59;;;;;;;74.07;43.25;;;9.00;1.00;;;;;;5053282;28;20048;-74
2023/03/10 01:56:27;;;;;;;53.72;30.90;;;9.00;1.00;;;;;;5089199;28;20051;-74
2023/03/10 01:58:55;;;;;;;64.10;37.63;;;9.00;1.00;;;;;;5068746;28;20067;-72
2023/03/10 02:01:23;;;;;;;49.78;30.35;;;9.00;1.00;;;;;;5068251;28;20131;-74
2023/03/10 02:03:57;;;;;;;57.88;32.95;;;9.00;99.90;;;;;;5070172;28;20051;-76
2023/03/10 02:06:26;;;;;;;66.15;39.88;;;9.00;1.00;;;;;;5073947;28;20036;-75
2023/03/10 02:08:57;;;;;;;71.15;41.15;;;8.90;1.00;;;;;;5115365;28;20024;-78
2023/03/10 02:11:26;;;;;;;62.28;37.50;;;8.90;1.00;;;;;;5112189;28;20020;-77
2023/03/10 02:13:55;;;;;;;55.80;32.95;;;8.80;99.90;;;;;;5095247;28;20161;-78
2023/03/10 02:16:23;;;;;;;55.42;30.67;;;8.80;1.00;;;;;;5075388;28;20047;-74
2023/03/10 02:18:51;;;;;;;55.30;31.88;;;8.80;99.90;;;;;;5068859;28;20132;-75
2023/03/10 02:21:28;;;;;;;56.33;33.40;;;8.80;99.90;;;;;;5072429;28;20048;-77
2023/03/10 02:24:03;;;;;;;66.00;40.47;;;8.80;1.00;;;;;;5074754;28;20068;-77
2023/03/10 02:26:39;;;;;;;76.20;46.33;;;8.70;1.00;;;;;;5075042;28;20048;-77
2023/03/10 02:29:13;;;;;;;78.05;46.50;;;8.60;99.90;;;;;;5068965;28;20083;-74
2023/03/10 02:31:43;;;;;;;73.45;46.78;;;8.60;26.20;;;;;;5071021;28;20040;-75
2023/03/10 02:34:11;;;;;;;75.15;48.17;;;8.60;99.90;;;;;;5067833;28;20395;-74
2023/03/10 02:36:39;;;;;;;51.60;31.10;;;8.60;99.90;;;;;;5088052;28;20106;-75
2023/03/10 02:39:07;;;;;;;57.17;35.25;;;8.50;99.90;;;;;;5067806;28;20040;-76
2023/03/10 02:41:36;;;;;;;57.42;35.75;;;8.50;1.00;;;;;;5067831;28;20442;-74
2023/03/10 02:44:10;;;;;;;52.40;31.17;;;8.50;1.00;;;;;;5088846;28;20048;-75
2023/03/10 02:46:38;;;;;;;54.05;30.15;;;8.50;1.00;;;;;;5071175;28;20047;-75
2023/03/10 02:49:09;;;;;;;56.30;31.58;;;8.50;1.00;;;;;;5077779;28;20545;-77
2023/03/10 02:51:42;;;;;;;53.67;32.35;;;8.50;99.90;;;;;;5095702;28;20059;-74
2023/03/10 02:54:14;;;;;;;54.60;31.23;;;8.50;99.90;;;;;;5091079;28;20079;-75
2023/03/10 02:56:42;;;;;;;50.28;29.30;;;8.50;99.90;;;;;;5089416;28;20095;-77
2023/03/10 02:59:13;;;;;;;55.38;30.02;;;8.50;28.30;;;;;;5082752;28;20135;-75
2023/03/10 03:01:49;;;;;;;57.70;29.98;;;8.50;1.00;;;;;;5093710;28;20036;-74
2023/03/10 03:04:19;;;;;;;63.47;33.83;;;8.50;1.00;;;;;;5085017;28;20044;-77
2023/03/10 03:06:47;;;;;;;54.47;29.50;;;8.50;1.00;;;;;;5072888;28;20491;-77
2023/03/10 03:09:15;;;;;;;53.92;30.60;;;8.50;1.00;;;;;;5071227;28;20047;-76
2023/03/10 03:11:43;;;;;;;49.65;30.05;;;8.50;1.00;;;;;;5066151;28;20067;-75
2023/03/10 03:14:12;;;;;;;45.83;29.13;;;8.40;1.00;;;;;;5067248;28;20048;-75
2023/03/10 03:16:40;;;;;;;51.10;28.95;;;8.50;1.00;;;;;;5068958;28;20062;-75
2023/03/10 03:19:10;;;;;;;49.40;28.52;;;8.50;1.00;;;;;;5070219;28;20098;-77
2023/03/10 03:21:39;;;;;;;45.00;28.15;;;8.50;1.00;;;;;;5071194;28;20032;-75
2023/03/10 03:24:08;;;;;;;47.88;27.80;;;8.50;99.90;;;;;;5067072;28;20040;-75
2023/03/10 03:26:35;;;;;;;50.03;28.13;;;8.40;99.90;;;;;;5070520;28;20059;-76
2023/03/10 03:29:12;;;;;;;59.40;34.05;;;8.40;1.00;;;;;;5070705;28;20143;-75
2023/03/10 03:31:41;;;;;;;47.33;27.45;;;8.40;1.00;;;;;;5075713;28;20064;-76
2023/03/10 03:34:14;;;;;;;48.08;27.42;;;8.30;1.00;;;;;;5079940;28;20054;-77
2023/03/10 03:36:43;;;;;;;41.78;24.70;;;8.30;99.90;;;;;;5069154;28;20040;-76
2023/03/10 03:39:16;;;;;;;35.60;21.58;;;8.30;1.00;;;;;;5072355;28;20040;-77
2023/03/10 03:41:47;;;;;;;30.00;17.83;;;8.30;99.90;;;;;;5072766;28;20045;-78
2023/03/10 03:44:17;;;;;;;39.47;21.77;;;8.30;1.00;;;;;;5067759;28;20426;-74
2023/03/10 03:46:45;;;;;;;40.45;22.55;;;8.40;1.00;;;;;;5070731;28;20067;-78
2023/03/10 03:49:12;;;;;;;32.63;18.67;;;8.30;99.90;;;;;;5065297;28;20044;-76
2023/03/10 03:51:41;;;;;;;33.38;18.13;;;8.30;99.90;;;;;;5067401;28;20411;-76
2023/03/10 03:54:09;;;;;;;34.88;19.60;;;8.30;1.00;;;;;;5067857;28;20044;-77
2023/03/10 03:56:39;;;;;;;38.58;22.58;;;8.20;24.70;;;;;;5022582;28;1313688;-76
2023/03/10 03:59:07;;;;;;;36.38;20.90;;;8.20;1.00;;;;;;5072297;28;20048;-77
2023/03/10 04:01:37;;;;;;;33.40;19.17;;;8.20;1.00;;;;;;5104490;28;20032;-78
2023/03/10 04:04:06;;;;;;;27.00;15.77;;;8.20;1.00;;;;;;5082053;28;20479;-76
2023/03/10 04:06:34;;;;;;;33.17;19.40;;;8.20;1.00;;;;;;5091532;28;20167;-74
2023/03/10 04:09:02;;;;;;;37.53;20.27;;;8.20;99.90;;;;;;5072172;28;20051;-77
2023/03/10 04:11:31;;;;;;;36.55;21.73;;;8.20;99.90;;;;;;5072037;28;20098;-77
2023/03/10 04:14:02;;;;;;;35.97;20.88;;;8.20;1.00;;;;;;5075973;28;20499;-76
2023/03/10 04:16:30;;;;;;;33.53;20.90;;;8.20;1.00;;;;;;5071246;28;20048;-77
2023/03/10 04:19:00;;;;;;;38.67;22.33;;;8.30;99.90;;;;;;5071366;28;20055;-78
2023/03/10 04:21:29;;;;;;;37.45;22.08;;;8.20;1.00;;;;;;5071664;28;20105;-78
2023/03/10 04:23:59;;;;;;;34.58;20.33;;;8.20;1.00;;;;;;5074092;28;20135;-78
2023/03/10 04:26:31;;;;;;;30.60;18.48;;;8.10;1.00;;;;;;5073242;28;20060;-76
2023/03/10 04:29:00;;;;;;;38.75;21.85;;;8.10;1.00;;;;;;5071318;28;20047;-76
2023/03/10 04:31:30;;;;;;;34.90;20.50;;;8.10;1.00;;;;;;5071199;28;20043;-75
2023/03/10 04:34:01;;;;;;;26.73;15.43;;;8.10;1.00;;;;;;5073765;28;20051;-78
2023/03/10 04:36:29;;;;;;;41.60;22.83;;;8.10;99.90;;;;;;5090684;28;20571;-76
2023/03/10 04:39:00;;;;;;;40.70;24.13;;;8.10;1.00;;;;;;5090285;28;20060;-77
2023/03/10 04:41:31;;;;;;;43.47;24.55;;;8.10;1.00;;;;;;5069680;28;20512;-77
2023/03/10 04:43:59;;;;;;;41.10;24.60;;;8.10;94.50;;;;;;5089806;28;20508;-76
2023/03/10 04:46:27;;;;;;;36.47;22.38;;;8.10;16.80;;;;;;5069261;28;20044;-77
2023/03/10 04:48:56;;;;;;;37.42;22.15;;;8.20;1.00;;;;;;5070496;28;20036;-76
2023/03/10 04:51:25;;;;;;;36.75;21.35;;;8.20;1.00;;;;;;5070725;28;20466;-75
2023/03/10 04:53:56;;;;;;;42.60;24.90;;;8.20;1.00;;;;;;5071221;28;20062;-77
2023/03/10 04:56:27;;;;;;;40.13;24.13;;;8.20;1.00;;;;;;5084770;22;20052;-79
2023/03/10 04:58:54;;;;;;;40.78;22.88;;;8.30;1.00;;;;;;5059384;28;20045;-79
2023/03/10 05:01:24;;;;;;;37.10;22.17;;;8.30;1.00;;;;;;5061465;28;20037;-77
2023/03/10 05:03:59;;;;;;;34.07;21.40;;;8.40;99.90;;;;;;5044484;28;20097;-80
2023/03/10 05:06:28;;;;;;;36.78;22.08;;;8.40;99.90;;;;;;5042531;28;20049;-78
2023/03/10 05:09:06;;;;;;;38.97;21.20;;;8.30;47.50;;;;;;5044341;28;20067;-80
2023/03/10 05:11:34;;;;;;;35.08;21.75;;;8.30;1.00;;;;;;5042559;28;20051;-80
2023/03/10 05:14:02;;;;;;;40.28;22.70;;;8.30;1.00;;;;;;5044012;28;20094;-78
2023/03/10 05:16:30;;;;;;;41.75;23.95;;;8.30;93.60;;;;;;5044110;28;20530;-80
2023/03/10 05:18:58;;;;;;;42.30;25.88;;;8.40;99.90;;;;;;5043435;28;20029;-79
2023/03/10 05:21:29;;;;;;;40.38;24.33;;;8.40;92.80;;;;;;5044422;28;20067;-79
2023/03/10 05:23:58;;;;;;;38.00;24.48;;;8.50;99.90;;;;;;5041771;28;20051;-77
2023/03/10 05:26:26;;;;;;;39.03;23.15;;;8.60;99.90;;;;;;5040936;28;20051;-78
2023/03/10 05:28:54;;;;;;;39.80;23.85;;;8.60;1.00;;;;;;5042648;28;20045;-77
2023/03/10 05:31:30;;;;;;;45.38;25.55;;;8.70;1.00;;;;;;5042873;28;20048;-80
2023/03/10 05:34:05;;;;;;;45.13;25.88;;;8.80;1.00;;;;;;5060891;28;20029;-80
2023/03/10 05:36:34;;;;;;;41.95;24.50;;;8.90;1.00;;;;;;5059163;28;20125;-78
2023/03/10 05:39:05;;;;;;;42.50;24.40;;;9.00;99.90;;;;;;5041199;28;20514;-79
2023/03/10 05:41:36;;;;;;;37.20;21.63;;;9.00;1.00;;;;;;5041937;28;20188;-80
2023/03/10 05:44:04;;;;;;;42.85;24.02;;;9.10;99.90;;;;;;5070244;28;20272;-80
2023/03/10 05:46:34;;;;;;;33.08;19.33;;;9.10;1.00;;;;;;5051970;28;20056;-78
2023/03/10 05:49:02;;;;;;;32.80;16.85;;;9.20;1.00;;;;;;5042914;28;20041;-80
2023/03/10 05:51:31;;;;;;;33.67;17.45;;;9.30;1.00;;;;;;5041878;28;20037;-79
2023/03/10 05:54:04;;;;;;;31.52;17.70;;;9.30;99.90;;;;;;5040983;28;20065;-79
2023/03/10 05:56:32;;;;;;;29.55;17.98;;;9.40;1.00;;;;;;5066857;28;20064;-80
2023/03/10 05:59:02;;;;;;;26.08;15.32;;;9.50;99.90;;;;;;5041909;28;20135;-81
2023/03/10 06:01:35;;;;;;;23.88;14.77;;;9.50;99.90;;;;;;5041618;28;20046;-79
2023/03/10 06:04:02;;;;;;;31.30;15.75;;;9.50;1.00;;;;;;5069864;28;20051;-80
2023/03/10 06:06:30;;;;;;;28.30;17.45;;;9.60;1.00;;;;;;5061180;28;20049;-80
2023/03/10 06:08:58;;;;;;;27.73;16.92;;;9.60;1.00;;;;;;5059564;28;20037;-79
2023/03/10 06:11:27;;;;;;;36.63;19.83;;;9.70;1.00;;;;;;5060541;28;20040;-81
2023/03/10 06:13:55;;;;;;;56.63;32.17;;;9.80;1.00;;;;;;5061449;28;20064;-79
2023/03/10 06:16:22;;;;;;;64.97;36.00;;;9.80;99.90;;;;;;5061314;28;20049;-78
2023/03/10 06:18:53;;;;;;;57.30;32.83;;;9.80;99.90;;;;;;5060220;28;20037;-80
2023/03/10 06:21:21;;;;;;;71.95;40.22;;;9.90;99.90;;;;;;5059937;28;20045;-78
2023/03/10 06:23:49;;;;;;;65.00;38.20;;;9.90;99.90;;;;;;5060070;28;20052;-80
2023/03/10 06:26:17;;;;;;;74.85;43.50;;;10.00;99.90;;;;;;5058388;28;20492;-80
2023/03/10 06:28:48;;;;;;;77.55;41.58;;;10.00;99.90;;;;;;5060249;28;20033;-80
2023/03/10 06:31:18;;;;;;;59.33;35.53;;;10.10;39.70;;;;;;5038624;28;20046;-79
2023/03/10 06:33:45;;;;;;;62.08;35.53;;;10.10;99.90;;;;;;5060050;28;20071;-80
2023/03/10 06:36:14;;;;;;;63.22;38.22;;;10.20;99.90;;;;;;5043852;28;20049;-80
2023/03/10 06:38:42;;;;;;;69.82;42.05;;;10.20;99.90;;;;;;5062136;28;20049;-77
2023/03/10 06:41:09;;;;;;;69.68;45.03;;;10.30;1.00;;;;;;5059456;28;20044;-80
2023/03/10 06:43:37;;;;;;;74.05;44.58;;;10.20;1.00;;;;;;5061698;28;20041;-80
2023/03/10 06:46:07;;;;;;;75.97;45.70;;;10.20;99.90;;;;;;5060156;28;20036;-78
2023/03/10 06:48:36;;;;;;;84.40;51.95;;;10.20;1.00;;;;;;5059739;28;20125;-79
2023/03/10 06:51:06;;;;;;;79.05;49.88;;;10.10;99.90;;;;;;5060387;28;20040;-80
2023/03/10 06:53:33;;;;;;;76.35;49.58;;;10.00;99.90;;;;;;5061603;28;20041;-80
2023/03/10 06:56:04;;;;;;;76.63;49.15;;;10.00;1.00;;;;;;5043761;28;20503;-79
2023/03/10 06:58:35;;;;;;;83.72;52.42;;;9.90;1.00;;;;;;5060192;28;20049;-79
2023/03/10 07:01:03;;;;;;;106.78;65.93;;;9.80;1.00;;;;;;5058313;28;20130;-78
2023/03/10 07:03:32;;;;;;;107.63;67.90;;;9.80;99.90;;;;;;5058680;28;20047;-78
2023/03/10 07:05:59;;;;;;;102.15;67.13;;;9.70;10.80;;;;;;5060572;28;20393;-80
2023/03/10 07:08:28;;;;;;;103.95;66.82;;;9.70;99.90;;;;;;5060183;28;20527;-79
2023/03/10 07:10:56;;;;;;;116.50;75.05;;;9.70;1.00;;;;;;5062209;28;20033;-80
2023/03/10 07:13:24;;;;;;;118.90;79.65;;;9.50;99.90;;;;;;5059418;28;20047;-78
2023/03/10 07:15:51;;;;;;;135.02;87.63;;;9.50;99.90;;;;;;5057684;28;20041;-81
2023/03/10 07:18:21;;;;;;;137.65;95.95;;;9.40;99.90;;;;;;5062805;28;20127;-79
2023/03/10 07:20:53;;;;;;;157.25;99.15;;;9.30;99.90;;;;;;5056513;28;20041;-80
2023/03/10 07:23:22;;;;;;;151.75;99.22;;;9.30;99.90;;;;;;5040756;28;20143;-80
2023/03/10 07:25:52;;;;;;;157.18;99.05;;;9.20;99.90;;;;;;5040396;28;20520;-80
2023/03/10 07:28:23;;;;;;;145.85;102.20;;;9.10;99.90;;;;;;5041327;28;20041;-80
2023/03/10 07:30:59;;;;;;;151.40;105.00;;;9.10;99.90;;;;;;5059975;28;20133;-80
2023/03/10 07:33:27;;;;;;;166.93;111.32;;;9.00;99.90;;;;;;5045804;28;20044;-82
2023/03/10 07:35:57;;;;;;;162.07;115.53;;;9.10;99.90;;;;;;5042130;28;20068;-81
2023/03/10 07:38:24;;;;;;;174.63;116.55;;;9.10;99.90;;;;;;5040417;28;20040;-80
2023/03/10 07:40:52;;;;;;;180.55;127.10;;;9.20;99.90;;;;;;5037652;28;20448;-80
2023/03/10 07:43:20;;;;;;;182.75;122.55;;;9.20;99.90;;;;;;5040533;28;20070;-82
2023/03/10 07:45:47;;;;;;;184.07;126.97;;;9.10;99.90;;;;;;5043942;28;20053;-80
2023/03/10 07:48:15;;;;;;;186.73;130.50;;;9.10;99.90;;;;;;5047018;28;20428;-80
2023/03/10 07:50:43;;;;;;;193.93;127.88;;;9.10;99.90;;;;;;5046770;28;20045;-81
2023/03/10 07:53:12;;;;;;;200.43;135.48;;;9.10;99.90;;;;;;5057118;28;20523;-80
2023/03/10 07:55:39;;;;;;;193.35;126.05;;;9.10;99.90;;;;;;5062934;28;20049;-81
2023/03/10 07:58:07;;;;;;;194.23;130.35;;;9.10;99.90;;;;;;5062449;28;20505;-82
2023/03/10 08:00:34;;;;;;;219.38;146.68;;;9.10;99.90;;;;;;5062108;28;20043;-80
2023/03/10 08:03:02;;;;;;;223.02;145.00;;;9.00;99.90;;;;;;5049159;28;20041;-79
2023/03/10 08:05:30;;;;;;;215.48;141.52;;;8.90;99.90;;;;;;5076432;28;20040;-79
2023/03/10 08:07:59;;;;;;;193.27;132.63;;;8.90;99.90;;;;;;5048928;28;21049;-81
2023/03/10 08:10:28;;;;;;;196.95;130.40;;;8.90;99.90;;;;;;5058459;28;20052;-78
2023/03/10 08:12:55;;;;;;;183.52;125.78;;;8.90;99.90;;;;;;5066214;28;20052;-80
2023/03/10 08:15:23;;;;;;;185.80;125.90;;;8.90;99.90;;;;;;5059886;28;20074;-80
2023/03/10 08:17:51;;;;;;;167.35;113.00;;;8.90;99.90;;;;;;5039578;28;20048;-78
2023/03/10 08:20:19;;;;;;;186.57;125.70;;;9.00;99.90;;;;;;5058954;28;20132;-79
2023/03/10 08:22:46;;;;;;;228.52;154.05;;;9.00;99.90;;;;;;5059175;28;20126;-79
2023/03/10 08:25:14;;;;;;;270.05;180.25;;;9.00;99.90;;;;;;5040736;28;20110;-79
2023/03/10 08:27:43;;;;;;;268.40;181.32;;;9.10;99.90;;;;;;5060388;28;20041;-80
2023/03/10 08:30:12;;;;;;;255.32;169.70;;;9.10;99.90;;;;;;5058169;28;20496;-78
2023/03/10 08:32:39;;;;;;;229.25;152.35;;;9.20;99.90;;;;;;5045434;28;20098;-79
2023/03/10 08:35:08;;;;;;;209.50;141.30;;;9.20;99.90;;;;;;5042535;28;20044;-81
2023/03/10 08:37:36;;;;;;;204.05;145.07;;;9.30;99.90;;;;;;5046254;28;20059;-80
2023/03/10 08:40:06;;;;;;;201.60;138.35;;;9.30;99.90;;;;;;5065486;28;20144;-80
2023/03/10 08:42:35;;;;;;;130.52;88.10;;;9.40;99.90;;;;;;5051140;28;20090;-79
2023/03/10 08:45:06;;;;;;;121.43;85.05;;;9.60;99.90;;;;;;5045692;28;20064;-80
2023/03/10 08:47:34;;;;;;;93.47;64.88;;;9.80;99.90;;;;;;5044696;28;20068;-81
2023/03/10 08:50:01;;;;;;;99.45;69.35;;;10.00;99.90;;;;;;5047065;28;20042;-80
2023/03/10 08:52:29;;;;;;;76.80;53.35;;;10.20;99.90;;;;;;5043967;28;20056;-79
2023/03/10 08:54:57;;;;;;;71.55;51.72;;;10.50;99.90;;;;;;5063012;28;20488;-82
2023/03/10 08:57:24;;;;;;;76.70;57.55;;;10.80;99.90;;;;;;5064591;28;20502;-81
2023/03/10 08:59:52;;;;;;;75.10;55.70;;;11.20;99.90;;;;;;5062657;28;20033;-83
2023/03/10 09:02:22;;;;;;;73.43;56.42;;;11.40;99.90;;;;;;5049511;28;20084;-82
2023/03/10 09:04:51;;;;;;;74.60;54.40;;;11.50;99.90;;;;;;5044620;28;20075;-82
2023/03/10 09:07:18;;;;;;;62.42;46.60;;;11.60;99.90;;;;;;5062784;28;20082;-82
2023/03/10 09:09:46;;;;;;;47.67;36.25;;;11.60;99.90;;;;;;5048199;28;20045;-82
2023/03/10 09:12:13;;;;;;;49.90;36.95;;;11.70;99.90;;;;;;5064276;28;20053;-80
2023/03/10 09:14:41;;;;;;;45.08;34.22;;;11.80;99.90;;;;;;5044320;28;20401;-81
2023/03/10 09:17:08;;;;;;;43.65;30.73;;;11.80;99.90;;;;;;5048467;28;20042;-80
2023/03/10 09:19:37;;;;;;;39.35;28.85;;;11.80;99.90;;;;;;5047523;28;20064;-80
2023/03/10 09:22:05;;;;;;;38.25;26.60;;;11.90;99.90;;;;;;5068582;28;20049;-80
2023/03/10 09:24:33;;;;;;;40.25;28.23;;;12.00;99.90;;;;;;5049160;28;20072;-80
2023/03/10 09:27:00;;;;;;;36.72;26.70;;;12.10;99.90;;;;;;5046864;28;20504;-80
2023/03/10 09:29:28;;;;;;;31.98;22.45;;;12.10;99.90;;;;;;5066509;28;20052;-79
2023/03/10 09:31:55;;;;;;;41.33;30.95;;;12.10;99.90;;;;;;5045931;28;20112;-81
2023/03/10 09:34:26;;;;;;;41.00;29.48;;;12.30;99.90;;;;;;5048491;28;20040;-80
2023/03/10 09:36:55;;;;;;;36.42;25.70;;;12.30;99.90;;;;;;5068079;28;20041;-80
2023/03/10 09:39:22;;;;;;;39.38;28.08;;;12.40;99.90;;;;;;5079928;28;20076;-81
2023/03/10 09:42:29;;;;;;;47.08;31.30;;;12.40;99.90;;;;;;5069153;28;20071;-81
2023/03/10 09:45:06;;;;;;;50.58;36.45;;;12.20;99.90;;;;;;5037860;28;20052;-79
2023/03/10 09:47:44;;;;;;;55.53;44.38;;;12.20;99.90;;;;;;5070682;28;20095;-81
2023/03/10 09:50:32;;;;;;;57.17;40.67;;;12.20;99.90;;;;;;5052510;28;20080;-80
2023/03/10 09:53:07;;;;;;;52.25;38.03;;;12.10;99.90;;;;;;5057186;28;20112;-83
2023/03/10 09:55:40;;;;;;;52.27;37.60;;;12.00;99.90;;;;;;5072425;28;20063;-83
2023/03/10 09:58:12;;;;;;;50.55;37.15;;;11.80;99.90;;;;;;5046500;28;20729;-82
2023/03/10 10:00:46;;;;;;;38.17;28.50;;;11.70;99.90;;;;;;5050295;28;20048;-82
2023/03/10 10:03:19;;;;;;;34.08;24.77;;;11.60;99.90;;;;;;5047520;28;20462;-83
2023/03/10 10:05:49;;;;;;;41.72;30.13;;;11.50;99.90;;;;;;5050496;28;20136;-83
2023/03/10 10:08:27;;;;;;;41.70;31.48;;;11.50;99.90;;;;;;5070315;28;20564;-81
2023/03/10 10:10:56;;;;;;;36.78;26.90;;;11.50;99.90;;;;;;5050412;28;20112;-83
2023/03/10 10:13:29;;;;;;;45.75;33.53;;;11.50;99.90;;;;;;5079448;28;20083;-82
2023/03/10 10:16:02;;;;;;;44.67;32.90;;;11.60;99.90;;;;;;5074814;28;20045;-81
2023/03/10 10:18:41;;;;;;;58.80;42.97;;;11.60;99.90;;;;;;5045139;28;20049;-82
2023/03/10 10:21:15;;;;;;;63.85;45.67;;;11.60;99.90;;;;;;5064561;28;20468;-80
2023/03/10 10:23:49;;;;;;;70.30;51.63;;;11.70;99.90;;;;;;5061507;28;20063;-82
2023/03/10 10:26:19;;;;;;;63.45;46.42;;;11.90;99.90;;;;;;5084327;28;20052;-83
2023/03/10 10:28:53;;;;;;;66.03;51.45;;;12.10;99.90;;;;;;5059546;28;20050;-82
2023/03/10 10:31:25;;;;;;;69.20;50.10;;;12.20;99.90;;;;;;5078278;28;20039;-80
2023/03/10 10:33:56;;;;;;;63.42;47.08;;;12.50;99.90;;;;;;5077881;28;20044;-82
2023/03/10 10:36:25;;;;;;;56.17;41.90;;;12.60;99.90;;;;;;5084051;28;20052;-80
2023/03/10 10:38:55;;;;;;;55.38;39.83;;;12.80;99.90;;;;;;5084832;28;20044;-81
2023/03/10 10:41:27;;;;;;;56.95;40.67;;;12.80;99.90;;;;;;5088565;28;20048;-80
2023/03/10 10:43:57;;;;;;;40.47;30.05;;;12.80;99.90;;;;;;5057629;28;20065;-81
2023/03/10 10:46:28;;;;;;;28.05;19.25;;;12.80;99.90;;;;;;5065769;28;20046;-80
2023/03/10 10:49:04;;;;;;;26.30;16.55;;;12.70;99.90;;;;;;5063035;28;20040;-80
2023/03/10 10:51:36;;;;;;;22.38;14.60;;;12.60;99.90;;;;;;5068212;28;20048;-80
2023/03/10 10:54:22;;;;;;;23.08;14.77;;;12.60;99.90;;;;;;5062205;28;20553;-79
2023/03/10 10:56:53;;;;;;;;;;;12.80;99.90;;;;;;5060418;28;20060;-80
2023/03/10 10:59:29;;;;;;;21.40;13.65;;;13.00;99.90;;;;;;5058990;28;19924;-78
2023/03/10 11:01:59;;;;;;;20.42;12.57;;;13.30;99.90;;;;;;5059174;28;20551;-79
2023/03/10 11:12:08;;;;;;;16.23;11.20;;;14.20;99.90;;;;;;4950167;28;20054;-83
2023/03/10 11:29:25;;;;;;;22.65;15.15;;;14.90;99.90;;;;;;4847421;29;20049;-83
2023/03/10 11:32:01;;;;;;;19.90;12.30;;;14.90;99.90;;;;;;4833386;29;20061;-88
2023/03/10 11:34:40;;;;;;;19.05;13.30;;;14.90;99.90;;;;;;4847657;29;20148;-83
2023/03/10 11:37:23;;;;;;;30.23;20.92;;;14.90;99.90;;;;;;4840385;29;20052;-83
2023/03/10 11:40:06;;;;;;;23.55;16.92;;;14.80;99.90;;;;;;4910758;29;20067;-89
2023/03/10 11:43:06;;;;;;;18.10;11.38;;;14.70;99.90;;;;;;4923327;29;20072;-87
2023/03/10 11:46:05;;;;;;;19.40;14.82;;;14.50;99.90;;;;;;4959909;28;20121;-85
2023/03/10 11:49:05;;;;;;;19.02;12.82;;;14.30;99.90;;;;;;4989764;28;20520;-87
2023/03/10 11:52:01;;;;;;;17.45;11.52;;;14.20;99.90;;;;;;4990339;28;20049;-86
2023/03/10 11:55:04;;;;;;;20.13;14.30;;;14.10;99.90;;;;;;4996254;28;20081;-90
2023/03/10 11:58:01;;;;;;;23.17;14.63;;;13.90;99.90;;;;;;5057151;28;20301;-79
2023/03/10 12:01:44;;;;;;;30.27;20.17;;;13.80;99.90;;;;;;5063666;28;20052;-91
2023/03/10 12:05:28;;;;;;;34.05;21.23;;;13.60;99.90;;;;;;5066319;28;20500;-84
2023/03/10 14:11:57;;;;;;;10.77;7.65;;;14.70;99.90;;;;;;5077706;28;20079;-87
2023/03/10 14:14:33;;;;;;;12.23;8.20;;;14.60;99.90;;;;;;5046538;28;20115;-82
2023/03/10 14:17:02;;;;;;;17.92;10.93;;;14.60;99.90;;;;;;5067926;28;20488;-84
2023/03/10 14:19:47;;;;;;;15.57;9.63;;;14.70;99.90;;;;;;5046524;28;20053;-83
2023/03/10 14:22:36;;;;;;;19.13;12.48;;;14.80;99.90;;;;;;5061203;28;20090;-83
2023/03/10 14:25:10;;;;;;;18.85;12.13;;;15.00;99.90;;;;;;5058336;28;20655;-81
2023/03/10 14:27:41;;;;;;;14.20;10.60;;;15.10;99.90;;;;;;5045094;28;20045;-81
2023/03/10 14:30:31;;;;;;;19.73;13.20;;;15.30;99.90;;;;;;5058999;28;20047;-81
2023/03/10 14:33:00;;;;;;;21.88;15.75;;;15.50;99.90;;;;;;5059577;28;20051;-78
2023/03/10 14:35:29;;;;;;;25.55;19.15;;;15.60;99.90;;;;;;5061606;28;20036;-86
2023/03/10 14:37:57;;;;;;;27.65;19.30;;;15.50;99.90;;;;;;5042195;28;20064;-81
2023/03/10 14:40:26;;;;;;;17.90;12.70;;;15.50;99.90;;;;;;5058884;28;20092;-82
2023/03/10 14:42:59;;;;;;;17.88;12.82;;;15.50;99.90;;;;;;5059675;28;20033;-80
2023/03/10 14:45:30;;;;;;;13.20;8.93;;;15.40;99.90;;;;;;5042209;28;20049;-82
2023/03/10 14:47:59;;;;;;;19.88;14.07;;;15.20;99.90;;;;;;5062706;28;20041;-80
2023/03/10 14:50:28;;;;;;;14.15;8.85;;;15.10;99.90;;;;;;5060441;28;20076;-82
2023/03/10 14:52:56;;;;;;;13.60;8.30;;;15.10;99.90;;;;;;5058563;28;20033;-81
2023/03/10 14:55:23;;;;;;;11.68;8.35;;;15.10;99.90;;;;;;5061774;28;20496;-82
2023/03/10 14:57:59;;;;;;;13.85;9.18;;;15.10;99.90;;;;;;5044047;28;20055;-81
2023/03/10 15:00:28;;;;;;;13.32;8.88;;;15.10;99.90;;;;;;5058456;28;20127;-82
2023/03/10 15:02:55;;;;;;;16.88;9.95;;;15.10;99.90;;;;;;5058165;28;20507;-84
2023/03/10 15:05:25;;;;;;;15.50;11.00;;;15.00;99.90;;;;;;5061412;28;20045;-81
2023/03/10 15:07:52;;;;;;;15.27;10.60;;;14.90;99.90;;;;;;5042362;28;20150;-83
2023/03/10 15:10:22;;;;;;;13.45;9.68;;;14.60;99.90;;;;;;5059841;28;20036;-84
2023/03/10 15:12:51;;;;;;;17.65;12.52;;;14.50;99.90;;;;;;5071573;28;20287;-82
2023/03/10 15:15:22;;;;;;;14.70;10.13;;;14.40;99.90;;;;;;5083048;28;20102;-81
2023/03/10 15:17:50;;;;;;;12.25;8.05;;;14.40;99.90;;;;;;5081116;28;20036;-82
2023/03/10 15:20:18;;;;;;;14.18;8.25;;;14.30;99.90;;;;;;5078311;28;20044;-81